sensor_id;sensor_type;location;lat;lon;timestamp;P1;durP1;ratioP1;P2;durP2;ratioP2
12445;SDS011;6287;50.984;7.022;2023-04-22T00:00:17;4.53;;;3.87;;
12445;SDS011;6287;50.984;7.022;2023-04-22T00:02:46;4.90;;;3.83;;
12445;SDS011;6287;50.984;7.022;2023-04-22T00:05:12;4.93;;;4.03;;
12445;SDS011;6287;50.984;7.022;2023-04-22T00:07:40;6.40;;;4.40;;
12445;SDS011;6287;50.984;7.022;2023-04-22T00:10:11;5.27;;;4.00;;
12445;SDS011;6287;50.984;7.022;2023-04-22T00:12:37;4.97;;;4.00;;
12445;SDS011;6287;50.984;7.022;2023-04-22T00:15:03;7.43;;;4.83;;
12445;SDS011;6287;50.984;7.022;2023-04-22T00:17:32;4.70;;;3.80;;
12445;SDS011;6287;50.984;7.022;2023-04-22T00:20:00;4.83;;;4.27;;
12445;SDS011;6287;50.984;7.022;2023-04-22T00:22:26;5.97;;;4.33;;
12445;SDS011;6287;50.984;7.022;2023-04-22T00:24:54;5.63;;;3.80;;
12445;SDS011;6287;50.984;7.022;2023-04-22T00:27:22;4.87;;;4.00;;
12445;SDS011;6287;50.984;7.022;2023-04-22T00:29:48;4.03;;;3.20;;
12445;SDS011;6287;50.984;7.022;2023-04-22T00:32:16;4.10;;;3.57;;
12445;SDS011;6287;50.984;7.022;2023-04-22T00:34:41;5.77;;;4.03;;
12445;SDS011;6287;50.984;7.022;2023-04-22T00:37:07;5.07;;;4.03;;
12445;SDS011;6287;50.984;7.022;2023-04-22T00:39:37;4.97;;;3.57;;
12445;SDS011;6287;50.984;7.022;2023-04-22T00:42:06;5.10;;;3.73;;
12445;SDS011;6287;50.984;7.022;2023-04-22T00:44:32;5.13;;;3.90;;
12445;SDS011;6287;50.984;7.022;2023-04-22T00:47:02;4.43;;;3.80;;
12445;SDS011;6287;50.984;7.022;2023-04-22T00:49:30;5.57;;;3.83;;
12445;SDS011;6287;50.984;7.022;2023-04-22T00:51:58;6.43;;;3.63;;
12445;SDS011;6287;50.984;7.022;2023-04-22T00:54:27;5.23;;;4.07;;
12445;SDS011;6287;50.984;7.022;2023-04-22T00:56:54;5.17;;;3.80;;
12445;SDS011;6287;50.984;7.022;2023-04-22T00:59:22;4.57;;;3.60;;
12445;SDS011;6287;50.984;7.022;2023-04-22T01:01:50;4.07;;;3.57;;
12445;SDS011;6287;50.984;7.022;2023-04-22T01:04:17;5.63;;;3.77;;
12445;SDS011;6287;50.984;7.022;2023-04-22T01:06:46;4.60;;;3.43;;
12445;SDS011;6287;50.984;7.022;2023-04-22T01:09:13;3.90;;;3.47;;
12445;SDS011;6287;50.984;7.022;2023-04-22T01:11:41;5.93;;;3.90;;
12445;SDS011;6287;50.984;7.022;2023-04-22T01:14:08;5.37;;;3.90;;
12445;SDS011;6287;50.984;7.022;2023-04-22T01:16:35;5.40;;;3.47;;
12445;SDS011;6287;50.984;7.022;2023-04-22T01:19:02;5.27;;;3.43;;
12445;SDS011;6287;50.984;7.022;2023-04-22T01:21:32;3.87;;;3.20;;
12445;SDS011;6287;50.984;7.022;2023-04-22T01:24:01;4.13;;;3.73;;
12445;SDS011;6287;50.984;7.022;2023-04-22T01:26:27;3.77;;;3.40;;
12445;SDS011;6287;50.984;7.022;2023-04-22T01:28:58;5.47;;;3.97;;
12445;SDS011;6287;50.984;7.022;2023-04-22T01:31:28;6.33;;;3.83;;
12445;SDS011;6287;50.984;7.022;2023-04-22T01:33:57;5.27;;;4.03;;
12445;SDS011;6287;50.984;7.022;2023-04-22T01:36:25;5.83;;;3.83;;
12445;SDS011;6287;50.984;7.022;2023-04-22T01:38:56;4.43;;;3.83;;
12445;SDS011;6287;50.984;7.022;2023-04-22T01:41:25;4.17;;;3.77;;
12445;SDS011;6287;50.984;7.022;2023-04-22T01:43:53;4.50;;;3.57;;
12445;SDS011;6287;50.984;7.022;2023-04-22T01:46:24;3.37;;;3.07;;
12445;SDS011;6287;50.984;7.022;2023-04-22T01:48:52;5.07;;;3.97;;
12445;SDS011;6287;50.984;7.022;2023-04-22T01:51:20;3.87;;;3.53;;
12445;SDS011;6287;50.984;7.022;2023-04-22T01:53:50;4.63;;;3.67;;
12445;SDS011;6287;50.984;7.022;2023-04-22T01:56:18;5.80;;;3.40;;
12445;SDS011;6287;50.984;7.022;2023-04-22T01:58:48;4.73;;;3.50;;
12445;SDS011;6287;50.984;7.022;2023-04-22T02:01:14;4.50;;;3.67;;
12445;SDS011;6287;50.984;7.022;2023-04-22T02:03:42;6.30;;;4.10;;
12445;SDS011;6287;50.984;7.022;2023-04-22T02:06:07;4.87;;;3.70;;
12445;SDS011;6287;50.984;7.022;2023-04-22T02:08:35;3.80;;;3.40;;
12445;SDS011;6287;50.984;7.022;2023-04-22T02:11:02;3.87;;;3.20;;
12445;SDS011;6287;50.984;7.022;2023-04-22T02:13:37;4.40;;;3.47;;
12445;SDS011;6287;50.984;7.022;2023-04-22T02:16:04;4.57;;;3.50;;
12445;SDS011;6287;50.984;7.022;2023-04-22T02:18:30;3.90;;;3.17;;
12445;SDS011;6287;50.984;7.022;2023-04-22T02:20:56;3.80;;;3.40;;
12445;SDS011;6287;50.984;7.022;2023-04-22T02:23:26;4.47;;;3.60;;
12445;SDS011;6287;50.984;7.022;2023-04-22T02:25:52;5.07;;;3.80;;
12445;SDS011;6287;50.984;7.022;2023-04-22T02:28:19;4.33;;;3.30;;
12445;SDS011;6287;50.984;7.022;2023-04-22T02:30:45;3.20;;;2.90;;
12445;SDS011;6287;50.984;7.022;2023-04-22T02:33:11;5.23;;;3.60;;
12445;SDS011;6287;50.984;7.022;2023-04-22T02:35:41;3.77;;;3.47;;
12445;SDS011;6287;50.984;7.022;2023-04-22T02:38:11;6.47;;;3.70;;
12445;SDS011;6287;50.984;7.022;2023-04-22T02:40:37;3.57;;;3.20;;
12445;SDS011;6287;50.984;7.022;2023-04-22T02:43:05;3.23;;;3.03;;
12445;SDS011;6287;50.984;7.022;2023-04-22T02:45:30;5.80;;;3.03;;
12445;SDS011;6287;50.984;7.022;2023-04-22T02:47:56;3.03;;;2.73;;
12445;SDS011;6287;50.984;7.022;2023-04-22T02:50:22;3.90;;;3.50;;
12445;SDS011;6287;50.984;7.022;2023-04-22T02:52:47;3.50;;;3.20;;
12445;SDS011;6287;50.984;7.022;2023-04-22T02:55:16;3.60;;;2.87;;
12445;SDS011;6287;50.984;7.022;2023-04-22T02:57:44;4.57;;;3.03;;
12445;SDS011;6287;50.984;7.022;2023-04-22T03:00:10;4.37;;;3.37;;
12445;SDS011;6287;50.984;7.022;2023-04-22T03:02:38;4.40;;;3.43;;
12445;SDS011;6287;50.984;7.022;2023-04-22T03:05:04;4.37;;;3.47;;
12445;SDS011;6287;50.984;7.022;2023-04-22T03:07:33;4.17;;;3.40;;
12445;SDS011;6287;50.984;7.022;2023-04-22T03:10:00;3.57;;;3.20;;
12445;SDS011;6287;50.984;7.022;2023-04-22T03:12:26;3.50;;;3.20;;
12445;SDS011;6287;50.984;7.022;2023-04-22T03:14:52;4.10;;;3.10;;
12445;SDS011;6287;50.984;7.022;2023-04-22T03:17:17;4.37;;;3.27;;
12445;SDS011;6287;50.984;7.022;2023-04-22T03:19:49;3.70;;;3.13;;
12445;SDS011;6287;50.984;7.022;2023-04-22T03:22:15;4.57;;;2.93;;
12445;SDS011;6287;50.984;7.022;2023-04-22T03:24:41;5.40;;;3.40;;
12445;SDS011;6287;50.984;7.022;2023-04-22T03:27:08;2.70;;;2.50;;
12445;SDS011;6287;50.984;7.022;2023-04-22T03:29:34;4.57;;;3.23;;
12445;SDS011;6287;50.984;7.022;2023-04-22T03:32:02;3.90;;;3.50;;
12445;SDS011;6287;50.984;7.022;2023-04-22T03:34:28;3.43;;;3.13;;
12445;SDS011;6287;50.984;7.022;2023-04-22T03:36:56;3.20;;;2.90;;
12445;SDS011;6287;50.984;7.022;2023-04-22T03:39:22;3.60;;;3.30;;
12445;SDS011;6287;50.984;7.022;2023-04-22T03:41:48;3.37;;;2.83;;
12445;SDS011;6287;50.984;7.022;2023-04-22T03:44:13;4.73;;;3.53;;
12445;SDS011;6287;50.984;7.022;2023-04-22T03:46:39;3.67;;;2.90;;
12445;SDS011;6287;50.984;7.022;2023-04-22T03:49:04;2.83;;;2.43;;
12445;SDS011;6287;50.984;7.022;2023-04-22T03:51:30;3.63;;;2.80;;
12445;SDS011;6287;50.984;7.022;2023-04-22T03:53:56;3.77;;;3.27;;
12445;SDS011;6287;50.984;7.022;2023-04-22T03:56:21;3.30;;;3.00;;
12445;SDS011;6287;50.984;7.022;2023-04-22T03:58:48;4.43;;;3.37;;
12445;SDS011;6287;50.984;7.022;2023-04-22T04:01:14;3.07;;;2.77;;
12445;SDS011;6287;50.984;7.022;2023-04-22T04:03:42;2.97;;;2.63;;
12445;SDS011;6287;50.984;7.022;2023-04-22T04:06:10;3.20;;;2.90;;
12445;SDS011;6287;50.984;7.022;2023-04-22T04:08:37;3.20;;;2.90;;
12445;SDS011;6287;50.984;7.022;2023-04-22T04:11:03;3.37;;;2.40;;
12445;SDS011;6287;50.984;7.022;2023-04-22T04:13:34;3.50;;;2.60;;
12445;SDS011;6287;50.984;7.022;2023-04-22T04:16:02;3.13;;;2.20;;
12445;SDS011;6287;50.984;7.022;2023-04-22T04:18:31;2.67;;;2.43;;
12445;SDS011;6287;50.984;7.022;2023-04-22T04:20:59;2.67;;;2.47;;
12445;SDS011;6287;50.984;7.022;2023-04-22T04:23:27;2.73;;;2.33;;
12445;SDS011;6287;50.984;7.022;2023-04-22T04:25:55;3.83;;;2.30;;
12445;SDS011;6287;50.984;7.022;2023-04-22T04:28:21;3.40;;;2.47;;
12445;SDS011;6287;50.984;7.022;2023-04-22T04:30:47;2.93;;;2.30;;
12445;SDS011;6287;50.984;7.022;2023-04-22T04:33:13;3.60;;;2.60;;
12445;SDS011;6287;50.984;7.022;2023-04-22T04:35:43;3.10;;;2.37;;
12445;SDS011;6287;50.984;7.022;2023-04-22T04:38:09;5.93;;;2.40;;
12445;SDS011;6287;50.984;7.022;2023-04-22T04:40:39;2.80;;;2.60;;
12445;SDS011;6287;50.984;7.022;2023-04-22T04:43:09;2.80;;;2.47;;
12445;SDS011;6287;50.984;7.022;2023-04-22T04:45:34;2.53;;;2.30;;
12445;SDS011;6287;50.984;7.022;2023-04-22T04:48:01;2.50;;;2.20;;
12445;SDS011;6287;50.984;7.022;2023-04-22T04:50:31;2.90;;;2.60;;
12445;SDS011;6287;50.984;7.022;2023-04-22T04:52:59;3.03;;;2.70;;
12445;SDS011;6287;50.984;7.022;2023-04-22T04:55:25;2.57;;;2.37;;
12445;SDS011;6287;50.984;7.022;2023-04-22T04:57:55;2.23;;;2.03;;
12445;SDS011;6287;50.984;7.022;2023-04-22T05:00:20;3.53;;;2.40;;
12445;SDS011;6287;50.984;7.022;2023-04-22T05:02:46;2.90;;;2.60;;
12445;SDS011;6287;50.984;7.022;2023-04-22T05:05:14;2.30;;;1.80;;
12445;SDS011;6287;50.984;7.022;2023-04-22T05:07:39;2.77;;;1.97;;
12445;SDS011;6287;50.984;7.022;2023-04-22T05:10:05;2.00;;;1.90;;
12445;SDS011;6287;50.984;7.022;2023-04-22T05:12:33;2.10;;;2.00;;
12445;SDS011;6287;50.984;7.022;2023-04-22T05:14:59;2.80;;;2.20;;
12445;SDS011;6287;50.984;7.022;2023-04-22T05:17:25;1.77;;;1.63;;
12445;SDS011;6287;50.984;7.022;2023-04-22T05:19:54;2.00;;;1.80;;
12445;SDS011;6287;50.984;7.022;2023-04-22T05:22:20;2.37;;;2.00;;
12445;SDS011;6287;50.984;7.022;2023-04-22T05:24:48;2.37;;;2.00;;
12445;SDS011;6287;50.984;7.022;2023-04-22T05:27:13;2.47;;;1.97;;
12445;SDS011;6287;50.984;7.022;2023-04-22T05:29:42;1.90;;;1.80;;
12445;SDS011;6287;50.984;7.022;2023-04-22T05:32:07;1.87;;;1.77;;
12445;SDS011;6287;50.984;7.022;2023-04-22T05:34:33;2.67;;;1.67;;
12445;SDS011;6287;50.984;7.022;2023-04-22T05:37:00;2.00;;;1.83;;
12445;SDS011;6287;50.984;7.022;2023-04-22T05:39:27;1.77;;;1.67;;
12445;SDS011;6287;50.984;7.022;2023-04-22T05:41:52;2.00;;;1.90;;
12445;SDS011;6287;50.984;7.022;2023-04-22T05:44:18;2.20;;;2.00;;
12445;SDS011;6287;50.984;7.022;2023-04-22T05:46:44;1.97;;;1.87;;
12445;SDS011;6287;50.984;7.022;2023-04-22T05:49:14;1.80;;;1.70;;
12445;SDS011;6287;50.984;7.022;2023-04-22T05:51:40;1.67;;;1.57;;
12445;SDS011;6287;50.984;7.022;2023-04-22T05:54:06;2.17;;;1.67;;
12445;SDS011;6287;50.984;7.022;2023-04-22T05:56:36;1.80;;;1.67;;
12445;SDS011;6287;50.984;7.022;2023-04-22T05:59:05;1.40;;;1.30;;
12445;SDS011;6287;50.984;7.022;2023-04-22T06:01:30;1.70;;;1.60;;
12445;SDS011;6287;50.984;7.022;2023-04-22T06:03:56;1.50;;;1.40;;
12445;SDS011;6287;50.984;7.022;2023-04-22T06:06:21;1.73;;;1.60;;
12445;SDS011;6287;50.984;7.022;2023-04-22T06:08:50;1.50;;;1.40;;
12445;SDS011;6287;50.984;7.022;2023-04-22T06:11:18;1.83;;;1.60;;
12445;SDS011;6287;50.984;7.022;2023-04-22T06:13:44;2.67;;;1.63;;
12445;SDS011;6287;50.984;7.022;2023-04-22T06:16:11;1.60;;;1.50;;
12445;SDS011;6287;50.984;7.022;2023-04-22T06:18:37;1.70;;;1.60;;
12445;SDS011;6287;50.984;7.022;2023-04-22T06:21:09;1.70;;;1.47;;
12445;SDS011;6287;50.984;7.022;2023-04-22T06:23:36;2.00;;;1.63;;
12445;SDS011;6287;50.984;7.022;2023-04-22T06:26:06;1.50;;;1.40;;
12445;SDS011;6287;50.984;7.022;2023-04-22T06:28:32;1.70;;;1.60;;
12445;SDS011;6287;50.984;7.022;2023-04-22T06:31:00;1.80;;;1.70;;
12445;SDS011;6287;50.984;7.022;2023-04-22T06:33:31;1.63;;;1.33;;
12445;SDS011;6287;50.984;7.022;2023-04-22T06:35:59;1.60;;;1.50;;
12445;SDS011;6287;50.984;7.022;2023-04-22T06:38:24;2.23;;;1.70;;
12445;SDS011;6287;50.984;7.022;2023-04-22T06:40:50;1.70;;;1.60;;
12445;SDS011;6287;50.984;7.022;2023-04-22T06:43:16;1.40;;;1.33;;
12445;SDS011;6287;50.984;7.022;2023-04-22T06:45:44;1.53;;;1.43;;
12445;SDS011;6287;50.984;7.022;2023-04-22T06:48:14;1.67;;;1.57;;
12445;SDS011;6287;50.984;7.022;2023-04-22T06:50:40;1.83;;;1.60;;
12445;SDS011;6287;50.984;7.022;2023-04-22T06:53:08;1.50;;;1.30;;
12445;SDS011;6287;50.984;7.022;2023-04-22T06:55:35;2.70;;;1.50;;
12445;SDS011;6287;50.984;7.022;2023-04-22T06:58:01;1.80;;;1.20;;
12445;SDS011;6287;50.984;7.022;2023-04-22T07:00:32;1.53;;;1.43;;
12445;SDS011;6287;50.984;7.022;2023-04-22T07:03:00;1.50;;;1.40;;
12445;SDS011;6287;50.984;7.022;2023-04-22T07:05:26;1.33;;;1.23;;
12445;SDS011;6287;50.984;7.022;2023-04-22T07:07:51;2.90;;;1.77;;
12445;SDS011;6287;50.984;7.022;2023-04-22T07:10:20;1.20;;;1.20;;
12445;SDS011;6287;50.984;7.022;2023-04-22T07:12:46;2.00;;;1.60;;
12445;SDS011;6287;50.984;7.022;2023-04-22T07:15:11;1.40;;;1.30;;
12445;SDS011;6287;50.984;7.022;2023-04-22T07:17:39;1.23;;;1.13;;
12445;SDS011;6287;50.984;7.022;2023-04-22T07:20:05;1.50;;;1.40;;
12445;SDS011;6287;50.984;7.022;2023-04-22T07:22:32;1.38;;;1.23;;
12445;SDS011;6287;50.984;7.022;2023-04-22T07:24:57;1.13;;;1.07;;
12445;SDS011;6287;50.984;7.022;2023-04-22T07:27:23;1.35;;;1.30;;
12445;SDS011;6287;50.984;7.022;2023-04-22T07:29:52;4.05;;;1.30;;
12445;SDS011;6287;50.984;7.022;2023-04-22T07:32:20;2.47;;;1.30;;
12445;SDS011;6287;50.984;7.022;2023-04-22T07:34:45;1.30;;;1.20;;
12445;SDS011;6287;50.984;7.022;2023-04-22T07:37:11;1.48;;;1.38;;
12445;SDS011;6287;50.984;7.022;2023-04-22T07:39:36;1.33;;;1.23;;
12445;SDS011;6287;50.984;7.022;2023-04-22T07:42:02;1.35;;;1.25;;
12445;SDS011;6287;50.984;7.022;2023-04-22T07:44:27;1.00;;;1.00;;
12445;SDS011;6287;50.984;7.022;2023-04-22T07:46:53;1.40;;;1.30;;
12445;SDS011;6287;50.984;7.022;2023-04-22T07:49:19;1.40;;;1.30;;
12445;SDS011;6287;50.984;7.022;2023-04-22T07:51:45;1.55;;;1.38;;
12445;SDS011;6287;50.984;7.022;2023-04-22T07:54:11;1.27;;;1.00;;
12445;SDS011;6287;50.984;7.022;2023-04-22T07:56:39;1.52;;;1.27;;
12445;SDS011;6287;50.984;7.022;2023-04-22T07:59:04;1.45;;;1.23;;
12445;SDS011;6287;50.984;7.022;2023-04-22T08:01:30;2.53;;;1.20;;
12445;SDS011;6287;50.984;7.022;2023-04-22T08:03:58;1.27;;;1.20;;
12445;SDS011;6287;50.984;7.022;2023-04-22T08:06:24;1.17;;;1.10;;
12445;SDS011;6287;50.984;7.022;2023-04-22T08:08:52;1.90;;;1.10;;
12445;SDS011;6287;50.984;7.022;2023-04-22T08:11:20;2.50;;;1.40;;
12445;SDS011;6287;50.984;7.022;2023-04-22T08:13:50;1.30;;;1.20;;
12445;SDS011;6287;50.984;7.022;2023-04-22T08:16:16;1.58;;;1.10;;
12445;SDS011;6287;50.984;7.022;2023-04-22T08:18:41;1.10;;;1.00;;
12445;SDS011;6287;50.984;7.022;2023-04-22T08:21:07;1.30;;;1.20;;
12445;SDS011;6287;50.984;7.022;2023-04-22T08:23:35;2.20;;;1.08;;
12445;SDS011;6287;50.984;7.022;2023-04-22T08:26:03;0.90;;;0.90;;
12445;SDS011;6287;50.984;7.022;2023-04-22T08:28:29;1.80;;;1.27;;
12445;SDS011;6287;50.984;7.022;2023-04-22T08:30:57;1.17;;;1.08;;
12445;SDS011;6287;50.984;7.022;2023-04-22T08:33:22;1.13;;;1.02;;
12445;SDS011;6287;50.984;7.022;2023-04-22T08:35:50;1.02;;;0.90;;
12445;SDS011;6287;50.984;7.022;2023-04-22T08:38:19;1.35;;;1.25;;
12445;SDS011;6287;50.984;7.022;2023-04-22T08:40:49;0.77;;;0.77;;
12445;SDS011;6287;50.984;7.022;2023-04-22T08:43:18;2.25;;;1.17;;
12445;SDS011;6287;50.984;7.022;2023-04-22T08:45:44;0.90;;;0.90;;
12445;SDS011;6287;50.984;7.022;2023-04-22T08:48:13;1.13;;;1.00;;
12445;SDS011;6287;50.984;7.022;2023-04-22T08:50:42;1.35;;;1.25;;
12445;SDS011;6287;50.984;7.022;2023-04-22T08:53:08;2.33;;;1.10;;
12445;SDS011;6287;50.984;7.022;2023-04-22T08:55:36;1.80;;;1.08;;
12445;SDS011;6287;50.984;7.022;2023-04-22T08:58:03;1.23;;;1.20;;
12445;SDS011;6287;50.984;7.022;2023-04-22T09:00:32;1.17;;;1.08;;
12445;SDS011;6287;50.984;7.022;2023-04-22T09:02:59;0.93;;;0.93;;
12445;SDS011;6287;50.984;7.022;2023-04-22T09:05:30;0.80;;;0.80;;
12445;SDS011;6287;50.984;7.022;2023-04-22T09:07:58;2.00;;;1.17;;
12445;SDS011;6287;50.984;7.022;2023-04-22T09:10:24;1.33;;;1.23;;
12445;SDS011;6287;50.984;7.022;2023-04-22T09:12:50;2.60;;;1.00;;
12445;SDS011;6287;50.984;7.022;2023-04-22T09:15:16;2.35;;;1.17;;
12445;SDS011;6287;50.984;7.022;2023-04-22T09:17:42;1.55;;;1.08;;
12445;SDS011;6287;50.984;7.022;2023-04-22T09:20:10;1.98;;;1.17;;
12445;SDS011;6287;50.984;7.022;2023-04-22T09:22:40;0.93;;;0.93;;
12445;SDS011;6287;50.984;7.022;2023-04-22T09:25:21;1.40;;;1.30;;
12445;SDS011;6287;50.984;7.022;2023-04-22T09:27:53;1.10;;;1.10;;
12445;SDS011;6287;50.984;7.022;2023-04-22T09:30:27;1.55;;;0.98;;
12445;SDS011;6287;50.984;7.022;2023-04-22T09:32:55;1.60;;;1.00;;
12445;SDS011;6287;50.984;7.022;2023-04-22T09:35:26;1.13;;;1.10;;
12445;SDS011;6287;50.984;7.022;2023-04-22T09:37:55;1.33;;;1.20;;
12445;SDS011;6287;50.984;7.022;2023-04-22T09:40:24;1.30;;;1.20;;
12445;SDS011;6287;50.984;7.022;2023-04-22T09:42:54;1.10;;;1.00;;
12445;SDS011;6287;50.984;7.022;2023-04-22T09:45:32;1.13;;;1.10;;
12445;SDS011;6287;50.984;7.022;2023-04-22T09:48:21;0.93;;;0.93;;
12445;SDS011;6287;50.984;7.022;2023-04-22T09:50:48;1.52;;;1.42;;
12445;SDS011;6287;50.984;7.022;2023-04-22T09:53:15;1.48;;;1.10;;
12445;SDS011;6287;50.984;7.022;2023-04-22T09:55:47;1.50;;;1.10;;
12445;SDS011;6287;50.984;7.022;2023-04-22T09:58:15;1.25;;;1.15;;
12445;SDS011;6287;50.984;7.022;2023-04-22T10:00:51;1.15;;;1.05;;
12445;SDS011;6287;50.984;7.022;2023-04-22T10:03:21;1.10;;;1.10;;
12445;SDS011;6287;50.984;7.022;2023-04-22T10:05:49;1.20;;;1.10;;
12445;SDS011;6287;50.984;7.022;2023-04-22T10:08:15;2.30;;;0.98;;
12445;SDS011;6287;50.984;7.022;2023-04-22T10:10:41;1.05;;;1.05;;
12445;SDS011;6287;50.984;7.022;2023-04-22T10:13:07;0.98;;;0.98;;
12445;SDS011;6287;50.984;7.022;2023-04-22T10:15:46;2.55;;;1.02;;
12445;SDS011;6287;50.984;7.022;2023-04-22T10:18:17;1.30;;;1.20;;
12445;SDS011;6287;50.984;7.022;2023-04-22T10:20:55;2.22;;;1.30;;
12445;SDS011;6287;50.984;7.022;2023-04-22T10:23:24;1.13;;;1.00;;
12445;SDS011;6287;50.984;7.022;2023-04-22T10:25:52;1.10;;;1.10;;
12445;SDS011;6287;50.984;7.022;2023-04-22T10:28:21;1.85;;;1.10;;
12445;SDS011;6287;50.984;7.022;2023-04-22T10:30:51;1.00;;;1.00;;
12445;SDS011;6287;50.984;7.022;2023-04-22T10:36:07;1.65;;;1.50;;
12445;SDS011;6287;50.984;7.022;2023-04-22T10:38:37;2.33;;;1.10;;
12445;SDS011;6287;50.984;7.022;2023-04-22T10:41:32;0.98;;;0.98;;
12445;SDS011;6287;50.984;7.022;2023-04-22T10:44:06;0.90;;;0.90;;
12445;SDS011;6287;50.984;7.022;2023-04-22T10:49:08;1.00;;;1.00;;
12445;SDS011;6287;50.984;7.022;2023-04-22T10:51:39;1.25;;;1.20;;
12445;SDS011;6287;50.984;7.022;2023-04-22T10:54:54;2.72;;;1.20;;
12445;SDS011;6287;50.984;7.022;2023-04-22T10:59:56;1.58;;;0.90;;
12445;SDS011;6287;50.984;7.022;2023-04-22T11:02:24;1.00;;;1.00;;
12445;SDS011;6287;50.984;7.022;2023-04-22T11:04:59;1.08;;;0.90;;
12445;SDS011;6287;50.984;7.022;2023-04-22T11:07:54;2.03;;;1.20;;
12445;SDS011;6287;50.984;7.022;2023-04-22T11:10:29;0.90;;;0.90;;
12445;SDS011;6287;50.984;7.022;2023-04-22T11:13:01;1.25;;;1.00;;
12445;SDS011;6287;50.984;7.022;2023-04-22T11:15:27;1.85;;;0.90;;
12445;SDS011;6287;50.984;7.022;2023-04-22T11:17:56;1.17;;;1.08;;
12445;SDS011;6287;50.984;7.022;2023-04-22T11:20:22;1.48;;;0.95;;
12445;SDS011;6287;50.984;7.022;2023-04-22T11:22:53;1.38;;;1.10;;
12445;SDS011;6287;50.984;7.022;2023-04-22T11:25:24;1.10;;;1.10;;
12445;SDS011;6287;50.984;7.022;2023-04-22T11:27:51;1.20;;;1.20;;
12445;SDS011;6287;50.984;7.022;2023-04-22T11:32:46;1.10;;;1.00;;
12445;SDS011;6287;50.984;7.022;2023-04-22T11:35:19;1.88;;;1.40;;
12445;SDS011;6287;50.984;7.022;2023-04-22T11:40:16;1.02;;;0.95;;
12445;SDS011;6287;50.984;7.022;2023-04-22T11:42:43;1.98;;;1.48;;
12445;SDS011;6287;50.984;7.022;2023-04-22T11:45:09;1.73;;;1.33;;
12445;SDS011;6287;50.984;7.022;2023-04-22T11:47:36;3.00;;;1.60;;
12445;SDS011;6287;50.984;7.022;2023-04-22T11:50:05;1.63;;;1.35;;
12445;SDS011;6287;50.984;7.022;2023-04-22T11:52:42;1.65;;;1.00;;
12445;SDS011;6287;50.984;7.022;2023-04-22T11:55:32;1.95;;;1.40;;
12445;SDS011;6287;50.984;7.022;2023-04-22T11:58:09;1.25;;;1.15;;
12445;SDS011;6287;50.984;7.022;2023-04-22T12:08:44;1.15;;;1.00;;
12445;SDS011;6287;50.984;7.022;2023-04-22T12:11:15;1.00;;;1.00;;
12445;SDS011;6287;50.984;7.022;2023-04-22T12:13:45;1.52;;;1.42;;
12445;SDS011;6287;50.984;7.022;2023-04-22T12:16:17;2.97;;;1.27;;
12445;SDS011;6287;50.984;7.022;2023-04-22T12:21:13;2.42;;;1.70;;
12445;SDS011;6287;50.984;7.022;2023-04-22T12:26:24;1.58;;;1.48;;
12445;SDS011;6287;50.984;7.022;2023-04-22T12:28:53;1.48;;;1.30;;
12445;SDS011;6287;50.984;7.022;2023-04-22T12:31:24;1.25;;;1.15;;
12445;SDS011;6287;50.984;7.022;2023-04-22T12:33:50;2.33;;;1.25;;
12445;SDS011;6287;50.984;7.022;2023-04-22T12:36:17;1.08;;;1.08;;
12445;SDS011;6287;50.984;7.022;2023-04-22T12:38:45;1.48;;;1.38;;
12445;SDS011;6287;50.984;7.022;2023-04-22T12:41:14;2.95;;;1.33;;
12445;SDS011;6287;50.984;7.022;2023-04-22T12:43:44;2.47;;;1.80;;
12445;SDS011;6287;50.984;7.022;2023-04-22T12:46:12;1.27;;;1.20;;
12445;SDS011;6287;50.984;7.022;2023-04-22T12:48:40;1.50;;;1.27;;
12445;SDS011;6287;50.984;7.022;2023-04-22T12:51:11;2.47;;;1.70;;
12445;SDS011;6287;50.984;7.022;2023-04-22T12:53:38;2.03;;;1.85;;
12445;SDS011;6287;50.984;7.022;2023-04-22T12:56:06;1.45;;;1.35;;
12445;SDS011;6287;50.984;7.022;2023-04-22T12:58:32;1.30;;;1.25;;
12445;SDS011;6287;50.984;7.022;2023-04-22T13:00:57;1.60;;;1.50;;
12445;SDS011;6287;50.984;7.022;2023-04-22T13:03:25;2.33;;;1.65;;
12445;SDS011;6287;50.984;7.022;2023-04-22T13:05:53;2.38;;;1.42;;
12445;SDS011;6287;50.984;7.022;2023-04-22T13:08:19;1.95;;;1.70;;
12445;SDS011;6287;50.984;7.022;2023-04-22T13:10:45;2.13;;;1.30;;
12445;SDS011;6287;50.984;7.022;2023-04-22T13:13:11;1.70;;;1.40;;
12445;SDS011;6287;50.984;7.022;2023-04-22T13:15:41;1.40;;;1.30;;
12445;SDS011;6287;50.984;7.022;2023-04-22T13:18:07;1.90;;;1.30;;
12445;SDS011;6287;50.984;7.022;2023-04-22T13:20:33;1.50;;;1.40;;
12445;SDS011;6287;50.984;7.022;2023-04-22T13:23:03;2.28;;;1.45;;
12445;SDS011;6287;50.984;7.022;2023-04-22T13:25:29;1.05;;;1.00;;
12445;SDS011;6287;50.984;7.022;2023-04-22T13:27:55;1.75;;;1.48;;
12445;SDS011;6287;50.984;7.022;2023-04-22T13:30:20;2.83;;;1.60;;
12445;SDS011;6287;50.984;7.022;2023-04-22T13:32:46;1.70;;;1.50;;
12445;SDS011;6287;50.984;7.022;2023-04-22T13:35:14;1.23;;;1.10;;
12445;SDS011;6287;50.984;7.022;2023-04-22T13:37:42;1.13;;;1.10;;
12445;SDS011;6287;50.984;7.022;2023-04-22T13:40:13;2.65;;;1.38;;
12445;SDS011;6287;50.984;7.022;2023-04-22T13:42:42;2.83;;;1.65;;
12445;SDS011;6287;50.984;7.022;2023-04-22T13:45:08;2.17;;;1.70;;
12445;SDS011;6287;50.984;7.022;2023-04-22T13:47:34;1.48;;;1.38;;
12445;SDS011;6287;50.984;7.022;2023-04-22T13:50:05;1.20;;;1.10;;
12445;SDS011;6287;50.984;7.022;2023-04-22T13:52:33;1.67;;;1.58;;
12445;SDS011;6287;50.984;7.022;2023-04-22T13:55:01;1.50;;;1.40;;
12445;SDS011;6287;50.984;7.022;2023-04-22T13:57:27;1.50;;;1.40;;
12445;SDS011;6287;50.984;7.022;2023-04-22T13:59:55;1.80;;;1.67;;
12445;SDS011;6287;50.984;7.022;2023-04-22T14:02:21;1.80;;;1.70;;
12445;SDS011;6287;50.984;7.022;2023-04-22T14:04:48;1.90;;;1.52;;
12445;SDS011;6287;50.984;7.022;2023-04-22T14:07:16;2.05;;;1.50;;
12445;SDS011;6287;50.984;7.022;2023-04-22T14:09:43;2.40;;;1.70;;
12445;SDS011;6287;50.984;7.022;2023-04-22T14:12:11;2.45;;;1.90;;
12445;SDS011;6287;50.984;7.022;2023-04-22T14:14:39;3.47;;;1.70;;
12445;SDS011;6287;50.984;7.022;2023-04-22T14:17:07;2.17;;;1.92;;
12445;SDS011;6287;50.984;7.022;2023-04-22T14:19:32;2.80;;;1.60;;
12445;SDS011;6287;50.984;7.022;2023-04-22T14:22:02;1.75;;;1.50;;
12445;SDS011;6287;50.984;7.022;2023-04-22T14:24:28;1.73;;;1.58;;
12445;SDS011;6287;50.984;7.022;2023-04-22T14:26:58;2.40;;;1.63;;
12445;SDS011;6287;50.984;7.022;2023-04-22T14:29:25;3.28;;;1.77;;
12445;SDS011;6287;50.984;7.022;2023-04-22T14:31:54;2.47;;;2.13;;
12445;SDS011;6287;50.984;7.022;2023-04-22T14:34:20;3.60;;;1.85;;
12445;SDS011;6287;50.984;7.022;2023-04-22T14:36:48;2.53;;;2.03;;
12445;SDS011;6287;50.984;7.022;2023-04-22T14:39:13;4.30;;;2.40;;
12445;SDS011;6287;50.984;7.022;2023-04-22T14:41:39;3.55;;;2.80;;
12445;SDS011;6287;50.984;7.022;2023-04-22T14:44:07;3.50;;;2.42;;
12445;SDS011;6287;50.984;7.022;2023-04-22T14:46:35;2.97;;;2.40;;
12445;SDS011;6287;50.984;7.022;2023-04-22T14:49:02;3.40;;;2.75;;
12445;SDS011;6287;50.984;7.022;2023-04-22T14:51:28;4.43;;;3.05;;
12445;SDS011;6287;50.984;7.022;2023-04-22T14:53:55;3.42;;;2.85;;
12445;SDS011;6287;50.984;7.022;2023-04-22T14:56:21;2.42;;;2.20;;
12445;SDS011;6287;50.984;7.022;2023-04-22T14:58:46;3.72;;;2.30;;
12445;SDS011;6287;50.984;7.022;2023-04-22T15:01:15;2.47;;;1.98;;
12445;SDS011;6287;50.984;7.022;2023-04-22T15:03:40;2.83;;;1.90;;
12445;SDS011;6287;50.984;7.022;2023-04-22T15:06:06;4.47;;;3.03;;
12445;SDS011;6287;50.984;7.022;2023-04-22T15:08:31;4.28;;;2.83;;
12445;SDS011;6287;50.984;7.022;2023-04-22T15:10:57;4.35;;;3.03;;
12445;SDS011;6287;50.984;7.022;2023-04-22T15:13:23;5.13;;;3.05;;
12445;SDS011;6287;50.984;7.022;2023-04-22T15:15:50;2.65;;;2.10;;
12445;SDS011;6287;50.984;7.022;2023-04-22T15:18:15;3.50;;;2.22;;
12445;SDS011;6287;50.984;7.022;2023-04-22T15:20:41;5.43;;;3.85;;
12445;SDS011;6287;50.984;7.022;2023-04-22T15:23:09;5.07;;;3.45;;
12445;SDS011;6287;50.984;7.022;2023-04-22T15:25:37;6.60;;;2.95;;
12445;SDS011;6287;50.984;7.022;2023-04-22T15:28:03;3.63;;;2.95;;
12445;SDS011;6287;50.984;7.022;2023-04-22T15:30:28;4.57;;;3.35;;